sensor_id;sensor_type;location;lat;lon;timestamp;pressure;altitude;pressure_sealevel;temperature;humidity
44531;BME280;30240;47.418;0.700;2023-02-15T00:00:44;101406.92138671875;;;4.73;72.78
44531;BME280;30240;47.418;0.700;2023-02-15T00:03:09;101411.2060546875;;;4.7;73.01
44531;BME280;30240;47.418;0.700;2023-02-15T00:05:34;101412.98217773438;;;4.77;72.76
44531;BME280;30240;47.418;0.700;2023-02-15T00:07:59;101414.453125;;;4.83;72.44
44531;BME280;30240;47.418;0.700;2023-02-15T00:10:24;101417.41333007812;;;4.8;73.25
44531;BME280;30240;47.418;0.700;2023-02-15T00:12:49;101417.41333007812;;;4.8;73.25
44531;BME280;30240;47.418;0.700;2023-02-15T00:15:14;101421.09375;;;5.08;72.16
44531;BME280;30240;47.418;0.700;2023-02-15T00:17:39;101424.24926757812;;;5.19;71.05
44531;BME280;30240;47.418;0.700;2023-02-15T00:20:04;101421.3623046875;;;5.21;71.26
44531;BME280;30240;47.418;0.700;2023-02-15T00:22:29;101417.0166015625;;;5.32;71.13
44531;BME280;30240;47.418;0.700;2023-02-15T00:24:54;101419.2138671875;;;5.5;70.89
44531;BME280;30240;47.418;0.700;2023-02-15T00:27:18;101419.2138671875;;;5.5;70.89
44531;BME280;30240;47.418;0.700;2023-02-15T00:29:44;101419.61669921875;;;5.6;70.03
44531;BME280;30240;47.418;0.700;2023-02-15T00:32:08;101423.05297851562;;;5.74;69.85
44531;BME280;30240;47.418;0.700;2023-02-15T00:34:34;101418.07250976562;;;5.87;69.86
44531;BME280;30240;47.418;0.700;2023-02-15T00:36:59;101422.03369140625;;;5.84;69.81
44531;BME280;30240;47.418;0.700;2023-02-15T00:39:24;101422.03369140625;;;5.84;69.81
44531;BME280;30240;47.418;0.700;2023-02-15T00:41:49;101416.31469726562;;;5.32;71.42
44531;BME280;30240;47.418;0.700;2023-02-15T00:44:14;101416.5283203125;;;5.11;71.8
44531;BME280;30240;47.418;0.700;2023-02-15T00:46:39;101412.2802734375;;;5.05;72.12
44531;BME280;30240;47.418;0.700;2023-02-15T00:49:04;101416.4794921875;;;5.15;72.17
44531;BME280;30240;47.418;0.700;2023-02-15T00:51:29;101416.4794921875;;;5.15;72.17
44531;BME280;30240;47.418;0.700;2023-02-15T00:53:54;101414.501953125;;;5.03;72.47
44531;BME280;30240;47.418;0.700;2023-02-15T00:56:19;101409.65576171875;;;5.22;71.89
44531;BME280;30240;47.418;0.700;2023-02-15T00:58:44;101410.15625;;;5.28;71.88
44531;BME280;30240;47.418;0.700;2023-02-15T01:01:10;101410.6689453125;;;5.38;71.9
44531;BME280;30240;47.418;0.700;2023-02-15T01:03:34;101410.6689453125;;;5.38;71.9
44531;BME280;30240;47.418;0.700;2023-02-15T01:05:59;101407.90405273438;;;5.32;72.08
44531;BME280;30240;47.418;0.700;2023-02-15T01:08:24;101407.75146484375;;;5.18;72.37
44531;BME280;30240;47.418;0.700;2023-02-15T01:10:49;101405.6884765625;;;5.34;71.58
44531;BME280;30240;47.418;0.700;2023-02-15T01:13:14;101405.78002929688;;;5.05;72.2
44531;BME280;30240;47.418;0.700;2023-02-15T01:15:39;101405.78002929688;;;5.05;72.2
44531;BME280;30240;47.418;0.700;2023-02-15T01:18:04;101400.72021484375;;;4.95;72.61
44531;BME280;30240;47.418;0.700;2023-02-15T01:20:29;101400.28076171875;;;4.7;73.68
44531;BME280;30240;47.418;0.700;2023-02-15T01:22:54;101395.31860351562;;;4.51;73.87
44531;BME280;30240;47.418;0.700;2023-02-15T01:25:20;101397.23510742188;;;4.42;74.0
44531;BME280;30240;47.418;0.700;2023-02-15T01:27:44;101397.23510742188;;;4.42;74.0
44531;BME280;30240;47.418;0.700;2023-02-15T01:30:09;101394.873046875;;;4.46;74.04
44531;BME280;30240;47.418;0.700;2023-02-15T01:32:34;101399.10888671875;;;4.56;73.71
44531;BME280;30240;47.418;0.700;2023-02-15T01:34:59;101401.513671875;;;4.37;74.55
44531;BME280;30240;47.418;0.700;2023-02-15T01:37:23;101400.64086914062;;;4.75;73.93
44531;BME280;30240;47.418;0.700;2023-02-15T01:39:49;101400.64086914062;;;4.75;73.93
44531;BME280;30240;47.418;0.700;2023-02-15T01:42:14;101398.27880859375;;;4.69;73.77
44531;BME280;30240;47.418;0.700;2023-02-15T01:42:20;101398.27880859375;;;4.69;73.77
44531;BME280;30240;47.418;0.700;2023-02-15T01:44:49;101401.6845703125;;;4.49;74.44
44531;BME280;30240;47.418;0.700;2023-02-15T01:47:04;101408.59375;;;4.44;74.82
44531;BME280;30240;47.418;0.700;2023-02-15T01:49:29;101397.0458984375;;;4.35;75.02
44531;BME280;30240;47.418;0.700;2023-02-15T01:51:54;101399.33471679688;;;4.38;75.0
44531;BME280;30240;47.418;0.700;2023-02-15T01:54:21;101399.33471679688;;;4.38;75.0
44531;BME280;30240;47.418;0.700;2023-02-15T01:56:44;101396.142578125;;;4.38;75.12
44531;BME280;30240;47.418;0.700;2023-02-15T01:59:12;101396.71630859375;;;4.3;74.84
44531;BME280;30240;47.418;0.700;2023-02-15T02:01:34;101398.88916015625;;;4.38;74.99
44531;BME280;30240;47.418;0.700;2023-02-15T02:04:02;101403.4912109375;;;4.17;76.72
44531;BME280;30240;47.418;0.700;2023-02-15T02:06:25;101403.4912109375;;;4.17;76.72
44531;BME280;30240;47.418;0.700;2023-02-15T02:08:49;101402.64282226562;;;3.94;77.31
44531;BME280;30240;47.418;0.700;2023-02-15T02:11:14;101396.96655273438;;;3.71;78.78
44531;BME280;30240;47.418;0.700;2023-02-15T02:13:39;101400.28686523438;;;3.55;79.16
44531;BME280;30240;47.418;0.700;2023-02-15T02:16:08;101400.09155273438;;;3.4;80.87
44531;BME280;30240;47.418;0.700;2023-02-15T02:18:35;101400.09155273438;;;3.4;80.87
44531;BME280;30240;47.418;0.700;2023-02-15T02:21:35;101395.751953125;;;3.51;81.29
44531;BME280;30240;47.418;0.700;2023-02-15T02:21:45;101395.751953125;;;3.51;81.29
44531;BME280;30240;47.418;0.700;2023-02-15T02:23:24;101398.76708984375;;;3.61;81.08
44531;BME280;30240;47.418;0.700;2023-02-15T02:26:24;101395.54443359375;;;3.51;81.19
44531;BME280;30240;47.418;0.700;2023-02-15T02:26:41;101395.54443359375;;;3.51;81.19
44531;BME280;30240;47.418;0.700;2023-02-15T02:26:57;101395.54443359375;;;3.51;81.19
44531;BME280;30240;47.418;0.700;2023-02-15T02:28:35;101394.7265625;;;3.57;81.22
44531;BME280;30240;47.418;0.700;2023-02-15T02:28:45;101394.7265625;;;3.57;81.22
44531;BME280;30240;47.418;0.700;2023-02-15T02:28:54;101394.7265625;;;3.57;81.22
44531;BME280;30240;47.418;0.700;2023-02-15T02:29:08;101394.7265625;;;3.57;81.22
44531;BME280;30240;47.418;0.700;2023-02-15T02:30:53;101394.7265625;;;3.57;81.22
44531;BME280;30240;47.418;0.700;2023-02-15T02:31:05;101394.7265625;;;3.57;81.22
44531;BME280;30240;47.418;0.700;2023-02-15T02:31:14;101394.7265625;;;3.57;81.22
44531;BME280;30240;47.418;0.700;2023-02-15T02:31:23;101394.7265625;;;3.57;81.22
44531;BME280;30240;47.418;0.700;2023-02-15T02:33:20;101388.03100585938;;;3.43;81.3
44531;BME280;30240;47.418;0.700;2023-02-15T02:33:36;101388.03100585938;;;3.43;81.3
44531;BME280;30240;47.418;0.700;2023-02-15T02:35:28;101386.4013671875;;;3.52;80.99
44531;BME280;30240;47.418;0.700;2023-02-15T02:37:55;101389.013671875;;;3.59;80.56
44531;BME280;30240;47.418;0.700;2023-02-15T02:38:00;101389.013671875;;;3.59;80.56
44531;BME280;30240;47.418;0.700;2023-02-15T02:40:19;101383.70361328125;;;3.67;80.25
44531;BME280;30240;47.418;0.700;2023-02-15T02:42:41;101383.70361328125;;;3.67;80.25
44531;BME280;30240;47.418;0.700;2023-02-15T02:45:07;101373.7060546875;;;3.85;79.85
44531;BME280;30240;47.418;0.700;2023-02-15T02:47:31;101382.12280273438;;;3.89;79.25
44531;BME280;30240;47.418;0.700;2023-02-15T02:49:59;101379.8095703125;;;3.87;78.85
44531;BME280;30240;47.418;0.700;2023-02-15T02:52:36;101380.54809570312;;;4.01;78.33
44531;BME280;30240;47.418;0.700;2023-02-15T02:54:44;101380.54809570312;;;4.01;78.33
44531;BME280;30240;47.418;0.700;2023-02-15T02:57:09;101369.189453125;;;4.01;77.96
44531;BME280;30240;47.418;0.700;2023-02-15T02:59:37;101365.78369140625;;;4.07;77.45
44531;BME280;30240;47.418;0.700;2023-02-15T03:02:03;101365.59448242188;;;3.87;77.81
44531;BME280;30240;47.418;0.700;2023-02-15T03:04:27;101364.990234375;;;3.94;77.99
44531;BME280;30240;47.418;0.700;2023-02-15T03:06:52;101364.990234375;;;3.94;77.99
44531;BME280;30240;47.418;0.700;2023-02-15T03:09:18;101364.22119140625;;;3.87;77.97
44531;BME280;30240;47.418;0.700;2023-02-15T03:09:23;101364.22119140625;;;3.87;77.97
44531;BME280;30240;47.418;0.700;2023-02-15T03:11:39;101368.9697265625;;;3.93;77.8
44531;BME280;30240;47.418;0.700;2023-02-15T03:14:03;101372.49145507812;;;4.1;77.0
44531;BME280;30240;47.418;0.700;2023-02-15T03:16:29;101367.66967773438;;;4.24;76.36
44531;BME280;30240;47.418;0.700;2023-02-15T03:18:55;101367.66967773438;;;4.24;76.36
44531;BME280;30240;47.418;0.700;2023-02-15T03:21:21;101366.845703125;;;4.3;75.98
44531;BME280;30240;47.418;0.700;2023-02-15T03:23:44;101368.26782226562;;;4.3;76.72
44531;BME280;30240;47.418;0.700;2023-02-15T03:26:09;101369.4580078125;;;4.0;76.84
44531;BME280;30240;47.418;0.700;2023-02-15T03:28:36;101366.6748046875;;;3.55;78.19
44531;BME280;30240;47.418;0.700;2023-02-15T03:31:01;101364.26391601562;;;3.55;78.08
44531;BME280;30240;47.418;0.700;2023-02-15T03:33:26;101364.26391601562;;;3.55;78.08
44531;BME280;30240;47.418;0.700;2023-02-15T03:35:52;101367.04711914062;;;3.67;78.05
44531;BME280;30240;47.418;0.700;2023-02-15T03:38:17;101364.48364257812;;;3.51;78.33
44531;BME280;30240;47.418;0.700;2023-02-15T03:40:41;101369.29931640625;;;3.35;79.4
44531;BME280;30240;47.418;0.700;2023-02-15T03:43:09;101367.82836914062;;;3.12;80.49
44531;BME280;30240;47.418;0.700;2023-02-15T03:45:31;101367.82836914062;;;3.12;80.49
44531;BME280;30240;47.418;0.700;2023-02-15T03:47:56;101370.263671875;;;2.98;81.58
44531;BME280;30240;47.418;0.700;2023-02-15T03:50:21;101367.32788085938;;;2.87;82.56
44531;BME280;30240;47.418;0.700;2023-02-15T03:52:44;101371.56372070312;;;2.7;83.12
44531;BME280;30240;47.418;0.700;2023-02-15T03:55:09;101374.2919921875;;;2.64;83.41
44531;BME280;30240;47.418;0.700;2023-02-15T03:57:35;101374.2919921875;;;2.64;83.41
44531;BME280;30240;47.418;0.700;2023-02-15T04:00:00;101378.37524414062;;;2.56;83.67
44531;BME280;30240;47.418;0.700;2023-02-15T04:02:27;101385.21728515625;;;2.54;83.59
44531;BME280;30240;47.418;0.700;2023-02-15T04:04:49;101378.35693359375;;;2.56;83.62
44531;BME280;30240;47.418;0.700;2023-02-15T04:07:13;101378.3447265625;;;2.57;83.51
44531;BME280;30240;47.418;0.700;2023-02-15T04:09:39;101378.3447265625;;;2.57;83.51
44531;BME280;30240;47.418;0.700;2023-02-15T04:12:04;101376.72729492188;;;2.56;83.24
44531;BME280;30240;47.418;0.700;2023-02-15T04:14:29;101378.173828125;;;2.64;83.09
44531;BME280;30240;47.418;0.700;2023-02-15T04:16:53;101376.19018554688;;;2.54;83.12
44531;BME280;30240;47.418;0.700;2023-02-15T04:19:19;101379.74243164062;;;2.57;83.17
44531;BME280;30240;47.418;0.700;2023-02-15T04:21:43;101379.74243164062;;;2.57;83.17
44531;BME280;30240;47.418;0.700;2023-02-15T04:24:09;101383.89892578125;;;2.64;83.01
44531;BME280;30240;47.418;0.700;2023-02-15T04:26:33;101379.49829101562;;;2.73;82.71
44531;BME280;30240;47.418;0.700;2023-02-15T04:28:59;101378.076171875;;;2.82;82.37
44531;BME280;30240;47.418;0.700;2023-02-15T04:31:24;101378.4423828125;;;2.96;81.93
44531;BME280;30240;47.418;0.700;2023-02-15T04:33:48;101378.4423828125;;;2.96;81.93
44531;BME280;30240;47.418;0.700;2023-02-15T04:36:13;101375.68969726562;;;3.0;81.47
44531;BME280;30240;47.418;0.700;2023-02-15T04:38:38;101379.8583984375;;;3.06;81.12
44531;BME280;30240;47.418;0.700;2023-02-15T04:41:03;101383.63037109375;;;2.99;81.39
44531;BME280;30240;47.418;0.700;2023-02-15T04:43:28;101382.11059570312;;;2.98;81.06
44531;BME280;30240;47.418;0.700;2023-02-15T04:45:53;101382.11059570312;;;2.98;81.06
44531;BME280;30240;47.418;0.700;2023-02-15T04:48:19;101388.50708007812;;;3.06;80.78
44531;BME280;30240;47.418;0.700;2023-02-15T04:50:44;101386.99340820312;;;3.1;80.74
44531;BME280;30240;47.418;0.700;2023-02-15T04:53:09;101385.95581054688;;;3.15;80.17
44531;BME280;30240;47.418;0.700;2023-02-15T04:55:33;101386.10229492188;;;3.15;79.97
44531;BME280;30240;47.418;0.700;2023-02-15T04:57:58;101382.04956054688;;;3.03;80.45
44531;BME280;30240;47.418;0.700;2023-02-15T05:00:24;101382.04956054688;;;3.03;80.45
44531;BME280;30240;47.418;0.700;2023-02-15T05:02:48;101385.8154296875;;;2.98;80.61
44531;BME280;30240;47.418;0.700;2023-02-15T05:05:14;101391.76635742188;;;2.74;81.5
44531;BME280;30240;47.418;0.700;2023-02-15T05:07:38;101387.95166015625;;;2.58;82.04
44531;BME280;30240;47.418;0.700;2023-02-15T05:10:04;101390.51513671875;;;2.51;82.42
44531;BME280;30240;47.418;0.700;2023-02-15T05:12:28;101390.51513671875;;;2.51;82.42
44531;BME280;30240;47.418;0.700;2023-02-15T05:14:53;101392.40112304688;;;2.57;82.44
44531;BME280;30240;47.418;0.700;2023-02-15T05:17:18;101386.05346679688;;;2.42;83.18
44531;BME280;30240;47.418;0.700;2023-02-15T05:19:44;101388.34228515625;;;2.36;83.11
44531;BME280;30240;47.418;0.700;2023-02-15T05:22:08;101384.40551757812;;;2.47;82.94
44531;BME280;30240;47.418;0.700;2023-02-15T05:24:33;101384.40551757812;;;2.47;82.94
44531;BME280;30240;47.418;0.700;2023-02-15T05:26:58;101380.99365234375;;;2.12;84.22
44531;BME280;30240;47.418;0.700;2023-02-15T05:29:23;101373.193359375;;;2.12;84.07
44531;BME280;30240;47.418;0.700;2023-02-15T05:31:48;101376.8310546875;;;2.18;84.24
44531;BME280;30240;47.418;0.700;2023-02-15T05:34:13;101374.06005859375;;;2.25;84.04
44531;BME280;30240;47.418;0.700;2023-02-15T05:36:38;101374.06005859375;;;2.25;84.04
44531;BME280;30240;47.418;0.700;2023-02-15T05:39:03;101378.43627929688;;;2.3;83.63
44531;BME280;30240;47.418;0.700;2023-02-15T05:41:28;101376.92260742188;;;2.33;83.48
44531;BME280;30240;47.418;0.700;2023-02-15T05:43:54;101374.89013671875;;;2.33;83.41
44531;BME280;30240;47.418;0.700;2023-02-15T05:46:19;101379.1748046875;;;2.26;83.35
44531;BME280;30240;47.418;0.700;2023-02-15T05:48:43;101379.1748046875;;;2.26;83.35
44531;BME280;30240;47.418;0.700;2023-02-15T05:51:11;101384.46655273438;;;2.18;83.54
44531;BME280;30240;47.418;0.700;2023-02-15T05:53:35;101384.84497070312;;;1.88;84.52
44531;BME280;30240;47.418;0.700;2023-02-15T05:55:59;101390.82641601562;;;1.93;84.38
44531;BME280;30240;47.418;0.700;2023-02-15T05:58:24;101384.34448242188;;;1.74;85.04
44531;BME280;30240;47.418;0.700;2023-02-15T06:00:48;101384.34448242188;;;1.74;85.04
44531;BME280;30240;47.418;0.700;2023-02-15T06:03:13;101389.6484375;;;1.75;84.93
44531;BME280;30240;47.418;0.700;2023-02-15T06:05:38;101391.12548828125;;;1.75;85.03
44531;BME280;30240;47.418;0.700;2023-02-15T06:08:03;101386.33422851562;;;1.8;84.75
44531;BME280;30240;47.418;0.700;2023-02-15T06:10:29;101383.8134765625;;;1.78;84.82
44531;BME280;30240;47.418;0.700;2023-02-15T06:12:53;101383.8134765625;;;1.78;84.82
44531;BME280;30240;47.418;0.700;2023-02-15T06:15:18;101389.86206054688;;;1.81;84.67
44531;BME280;30240;47.418;0.700;2023-02-15T06:17:44;101397.54638671875;;;1.8;84.22
44531;BME280;30240;47.418;0.700;2023-02-15T06:20:09;101392.98706054688;;;1.71;84.43
44531;BME280;30240;47.418;0.700;2023-02-15T06:22:33;101384.765625;;;1.68;84.44
44531;BME280;30240;47.418;0.700;2023-02-15T06:24:58;101393.6279296875;;;1.57;84.43
44531;BME280;30240;47.418;0.700;2023-02-15T06:27:23;101393.6279296875;;;1.57;84.43
44531;BME280;30240;47.418;0.700;2023-02-15T06:29:48;101392.10815429688;;;1.6;83.64
44531;BME280;30240;47.418;0.700;2023-02-15T06:32:13;101388.98315429688;;;1.6;83.45
44531;BME280;30240;47.418;0.700;2023-02-15T06:34:38;101399.49951171875;;;1.63;83.17
44531;BME280;30240;47.418;0.700;2023-02-15T06:37:03;101400.32958984375;;;1.7;82.92
44531;BME280;30240;47.418;0.700;2023-02-15T06:39:28;101400.32958984375;;;1.7;82.92
44531;BME280;30240;47.418;0.700;2023-02-15T06:41:53;101396.67358398438;;;1.75;82.7
44531;BME280;30240;47.418;0.700;2023-02-15T06:44:18;101392.51708984375;;;1.71;82.79
44531;BME280;30240;47.418;0.700;2023-02-15T06:46:43;101397.607421875;;;1.7;82.66
44531;BME280;30240;47.418;0.700;2023-02-15T06:49:09;101408.67919921875;;;1.87;82.67
44531;BME280;30240;47.418;0.700;2023-02-15T06:51:33;101408.67919921875;;;1.87;82.67
44531;BME280;30240;47.418;0.700;2023-02-15T06:53:58;101412.44506835938;;;1.73;82.64
44531;BME280;30240;47.418;0.700;2023-02-15T06:56:23;101417.34619140625;;;1.66;83.02
44531;BME280;30240;47.418;0.700;2023-02-15T06:58:48;101412.1337890625;;;1.66;82.63
44531;BME280;30240;47.418;0.700;2023-02-15T07:01:13;101408.56323242188;;;1.73;82.77
44531;BME280;30240;47.418;0.700;2023-02-15T07:03:39;101408.56323242188;;;1.73;82.77
44531;BME280;30240;47.418;0.700;2023-02-15T07:06:04;101407.90405273438;;;1.67;82.67
44531;BME280;30240;47.418;0.700;2023-02-15T07:08:29;101410.12573242188;;;1.77;82.75
44531;BME280;30240;47.418;0.700;2023-02-15T07:10:55;101409.09423828125;;;1.87;82.26
44531;BME280;30240;47.418;0.700;2023-02-15T07:13:19;101414.14794921875;;;2.02;81.7
44531;BME280;30240;47.418;0.700;2023-02-15T07:15:44;101414.14794921875;;;2.02;81.7
44531;BME280;30240;47.418;0.700;2023-02-15T07:18:09;101417.37670898438;;;1.97;81.64
44531;BME280;30240;47.418;0.700;2023-02-15T07:20:33;101413.66577148438;;;1.91;81.93
44531;BME280;30240;47.418;0.700;2023-02-15T07:22:58;101424.20043945312;;;1.88;82.39
44531;BME280;30240;47.418;0.700;2023-02-15T07:25:23;101427.1728515625;;;1.87;82.53
44531;BME280;30240;47.418;0.700;2023-02-15T07:27:55;101427.1728515625;;;1.87;82.53
44531;BME280;30240;47.418;0.700;2023-02-15T07:30:16;101431.14624023438;;;2.01;82.19
44531;BME280;30240;47.418;0.700;2023-02-15T07:32:39;101432.48291015625;;;2.28;81.56
44531;BME280;30240;47.418;0.700;2023-02-15T07:35:04;101430.82885742188;;;2.58;80.29
44531;BME280;30240;47.418;0.700;2023-02-15T07:37:29;101427.76489257812;;;2.47;80.35
44531;BME280;30240;47.418;0.700;2023-02-15T07:39:53;101427.76489257812;;;2.47;80.35
44531;BME280;30240;47.418;0.700;2023-02-15T07:42:18;101434.31396484375;;;2.56;80.05
44531;BME280;30240;47.418;0.700;2023-02-15T07:44:43;101436.865234375;;;2.73;79.66
44531;BME280;30240;47.418;0.700;2023-02-15T07:47:09;101435.65063476562;;;3.05;78.67
44531;BME280;30240;47.418;0.700;2023-02-15T07:49:34;101438.818359375;;;2.89;78.89
44531;BME280;30240;47.418;0.700;2023-02-15T07:52:00;101438.818359375;;;2.89;78.89
44531;BME280;30240;47.418;0.700;2023-02-15T07:54:24;101451.1962890625;;;2.92;78.93
44531;BME280;30240;47.418;0.700;2023-02-15T07:56:49;101445.62377929688;;;3.05;78.44
44531;BME280;30240;47.418;0.700;2023-02-15T07:59:14;101453.45458984375;;;3.2;78.57
44531;BME280;30240;47.418;0.700;2023-02-15T08:01:39;101450.0732421875;;;3.19;78.08
44531;BME280;30240;47.418;0.700;2023-02-15T08:04:05;101447.34497070312;;;3.19;78.32
44531;BME280;30240;47.418;0.700;2023-02-15T08:06:31;101447.34497070312;;;3.19;78.32
44531;BME280;30240;47.418;0.700;2023-02-15T08:08:53;101453.21655273438;;;3.35;77.8
44531;BME280;30240;47.418;0.700;2023-02-15T08:11:20;101446.64306640625;;;3.67;77.22
44531;BME280;30240;47.418;0.700;2023-02-15T08:13:44;101446.6796875;;;4.13;75.61
44531;BME280;30240;47.418;0.700;2023-02-15T08:16:08;101443.6279296875;;;4.73;73.8
44531;BME280;30240;47.418;0.700;2023-02-15T08:18:33;101443.6279296875;;;4.73;73.8
44531;BME280;30240;47.418;0.700;2023-02-15T08:20:58;101448.46801757812;;;5.4;71.76
44531;BME280;30240;47.418;0.700;2023-02-15T08:23:24;101442.73681640625;;;6.13;69.95
44531;BME280;30240;47.418;0.700;2023-02-15T08:25:48;101436.5966796875;;;7.0;66.88
44531;BME280;30240;47.418;0.700;2023-02-15T08:28:13;101426.94702148438;;;7.06;66.25
44531;BME280;30240;47.418;0.700;2023-02-15T08:30:38;101426.94702148438;;;7.06;66.25
44531;BME280;30240;47.418;0.700;2023-02-15T08:33:03;101430.93872070312;;;7.38;65.22
44531;BME280;30240;47.418;0.700;2023-02-15T08:35:28;101438.623046875;;;7.26;65.48
44531;BME280;30240;47.418;0.700;2023-02-15T08:37:53;101439.64233398438;;;7.34;66.48
44531;BME280;30240;47.418;0.700;2023-02-15T08:40:19;101437.48168945312;;;6.68;67.21
44531;BME280;30240;47.418;0.700;2023-02-15T08:42:43;101437.48168945312;;;6.68;67.21
44531;BME280;30240;47.418;0.700;2023-02-15T08:45:08;101432.72094726562;;;6.26;68.52
44531;BME280;30240;47.418;0.700;2023-02-15T08:47:33;101435.7177734375;;;6.91;67.53
44531;BME280;30240;47.418;0.700;2023-02-15T08:49:59;101434.5458984375;;;7.47;66.77
44531;BME280;30240;47.418;0.700;2023-02-15T08:52:23;101435.7666015625;;;7.62;65.93
44531;BME280;30240;47.418;0.700;2023-02-15T08:54:48;101435.7666015625;;;7.62;65.93
44531;BME280;30240;47.418;0.700;2023-02-15T08:57:13;101434.01489257812;;;7.91;65.87
44531;BME280;30240;47.418;0.700;2023-02-15T08:59:39;101434.88159179688;;;8.04;65.94
44531;BME280;30240;47.418;0.700;2023-02-15T09:02:03;101437.02392578125;;;7.91;66.1
44531;BME280;30240;47.418;0.700;2023-02-15T09:04:28;101440.81420898438;;;7.94;65.83
44531;BME280;30240;47.418;0.700;2023-02-15T09:06:54;101440.81420898438;;;7.94;65.83
44531;BME280;30240;47.418;0.700;2023-02-15T09:09:19;101447.4853515625;;;7.82;65.95
44531;BME280;30240;47.418;0.700;2023-02-15T09:11:45;101457.36694335938;;;7.73;66.86
44531;BME280;30240;47.418;0.700;2023-02-15T09:14:11;101457.50122070312;;;7.93;66.34
44531;BME280;30240;47.418;0.700;2023-02-15T09:16:36;101448.388671875;;;7.76;66.55
44531;BME280;30240;47.418;0.700;2023-02-15T09:18:59;101448.388671875;;;7.76;66.55
44531;BME280;30240;47.418;0.700;2023-02-15T09:21:25;101449.0478515625;;;7.71;66.84
44531;BME280;30240;47.418;0.700;2023-02-15T09:23:51;101447.1435546875;;;7.37;67.72
44531;BME280;30240;47.418;0.700;2023-02-15T09:26:16;101454.48608398438;;;7.59;67.37
44531;BME280;30240;47.418;0.700;2023-02-15T09:28:39;101450.0244140625;;;8.17;66.18
44531;BME280;30240;47.418;0.700;2023-02-15T09:31:05;101453.857421875;;;7.59;66.88
44531;BME280;30240;47.418;0.700;2023-02-15T09:33:28;101453.857421875;;;7.59;66.88
44531;BME280;30240;47.418;0.700;2023-02-15T09:35:53;101451.3671875;;;7.64;66.99
44531;BME280;30240;47.418;0.700;2023-02-15T09:38:18;101449.2431640625;;;7.68;67.16
44531;BME280;30240;47.418;0.700;2023-02-15T09:40:55;101451.9287109375;;;7.65;67.86
44531;BME280;30240;47.418;0.700;2023-02-15T09:41:04;101451.9287109375;;;7.65;67.86
44531;BME280;30240;47.418;0.700;2023-02-15T09:41:13;101451.9287109375;;;7.65;67.86
44531;BME280;30240;47.418;0.700;2023-02-15T09:43:34;101453.37524414062;;;8.0;66.79
44531;BME280;30240;47.418;0.700;2023-02-15T09:45:41;101453.37524414062;;;8.0;66.79
44531;BME280;30240;47.418;0.700;2023-02-15T09:48:07;101451.611328125;;;8.21;65.98
44531;BME280;30240;47.418;0.700;2023-02-15T09:50:30;101451.15356445312;;;8.37;65.26
44531;BME280;30240;47.418;0.700;2023-02-15T09:50:33;101451.15356445312;;;8.37;65.26
44531;BME280;30240;47.418;0.700;2023-02-15T09:52:56;101452.734375;;;8.3;65.82
44531;BME280;30240;47.418;0.700;2023-02-15T09:53:04;101452.734375;;;8.3;65.82
44531;BME280;30240;47.418;0.700;2023-02-15T09:53:20;101452.734375;;;8.3;65.82
44531;BME280;30240;47.418;0.700;2023-02-15T09:53:28;101452.734375;;;8.3;65.82
44531;BME280;30240;47.418;0.700;2023-02-15T09:55:22;101450.64086914062;;;8.35;65.52
44531;BME280;30240;47.418;0.700;2023-02-15T09:57:44;101450.64086914062;;;8.35;65.52
44531;BME280;30240;47.418;0.700;2023-02-15T10:00:08;101448.01635742188;;;8.42;65.6
44531;BME280;30240;47.418;0.700;2023-02-15T10:00:13;101448.01635742188;;;8.42;65.6
44531;BME280;30240;47.418;0.700;2023-02-15T10:00:19;101448.01635742188;;;8.42;65.6
44531;BME280;30240;47.418;0.700;2023-02-15T10:02:37;101447.15576171875;;;8.7;65.68
44531;BME280;30240;47.418;0.700;2023-02-15T10:02:45;101447.15576171875;;;8.7;65.68
44531;BME280;30240;47.418;0.700;2023-02-15T10:02:53;101447.15576171875;;;8.7;65.68
44531;BME280;30240;47.418;0.700;2023-02-15T10:03:03;101447.15576171875;;;8.7;65.68
44531;BME280;30240;47.418;0.700;2023-02-15T10:03:10;101447.15576171875;;;8.7;65.68
44531;BME280;30240;47.418;0.700;2023-02-15T10:05:07;101456.97021484375;;;8.92;64.87
44531;BME280;30240;47.418;0.700;2023-02-15T10:07:34;101453.2958984375;;;9.15;64.06
44531;BME280;30240;47.418;0.700;2023-02-15T10:07:42;101453.2958984375;;;9.15;64.06
44531;BME280;30240;47.418;0.700;2023-02-15T10:07:52;101453.2958984375;;;9.15;64.06
44531;BME280;30240;47.418;0.700;2023-02-15T10:08:01;101453.2958984375;;;9.15;64.06
44531;BME280;30240;47.418;0.700;2023-02-15T10:08:09;101453.2958984375;;;9.15;64.06
44531;BME280;30240;47.418;0.700;2023-02-15T10:09:51;101453.2958984375;;;9.15;64.06
44531;BME280;30240;47.418;0.700;2023-02-15T10:09:59;101453.2958984375;;;9.15;64.06
44531;BME280;30240;47.418;0.700;2023-02-15T10:12:15;101447.84545898438;;;8.92;64.94
44531;BME280;30240;47.418;0.700;2023-02-15T10:14:41;101447.68676757812;;;9.31;63.81
44531;BME280;30240;47.418;0.700;2023-02-15T10:17:05;101450.00610351562;;;9.69;63.08
44531;BME280;30240;47.418;0.700;2023-02-15T10:17:12;101450.00610351562;;;9.69;63.08